sensor_id;sensor_type;location;lat;lon;timestamp;temperature;humidity
56542;DHT22;42438;53.174;6.730;2023-04-25T00:02:19;6.20;99.90
56542;DHT22;42438;53.174;6.730;2023-04-25T00:04:49;6.20;99.90
56542;DHT22;42438;53.174;6.730;2023-04-25T00:07:20;6.10;99.90
56542;DHT22;42438;53.174;6.730;2023-04-25T00:09:50;6.00;99.90
56542;DHT22;42438;53.174;6.730;2023-04-25T00:12:21;6.00;99.90
56542;DHT22;42438;53.174;6.730;2023-04-25T00:14:53;5.80;99.90
56542;DHT22;42438;53.174;6.730;2023-04-25T00:17:23;6.60;99.90
56542;DHT22;42438;53.174;6.730;2023-04-25T00:19:57;6.50;99.90
56542;DHT22;42438;53.174;6.730;2023-04-25T00:22:28;6.30;99.90
56542;DHT22;42438;53.174;6.730;2023-04-25T00:24:59;6.10;99.90
56542;DHT22;42438;53.174;6.730;2023-04-25T00:27:30;6.20;99.90
56542;DHT22;42438;53.174;6.730;2023-04-25T00:30:01;6.40;99.90
56542;DHT22;42438;53.174;6.730;2023-04-25T00:32:31;6.20;99.90
56542;DHT22;42438;53.174;6.730;2023-04-25T00:35:02;6.40;99.90
56542;DHT22;42438;53.174;6.730;2023-04-25T00:37:32;6.20;99.90
56542;DHT22;42438;53.174;6.730;2023-04-25T00:40:04;6.30;99.90
56542;DHT22;42438;53.174;6.730;2023-04-25T00:42:36;6.00;99.90
56542;DHT22;42438;53.174;6.730;2023-04-25T00:45:07;6.20;99.90
56542;DHT22;42438;53.174;6.730;2023-04-25T00:47:40;5.80;99.90
56542;DHT22;42438;53.174;6.730;2023-04-25T00:50:11;5.80;99.90
56542;DHT22;42438;53.174;6.730;2023-04-25T00:52:45;5.50;99.90
56542;DHT22;42438;53.174;6.730;2023-04-25T00:55:16;5.50;99.90
56542;DHT22;42438;53.174;6.730;2023-04-25T00:57:46;5.50;99.90
56542;DHT22;42438;53.174;6.730;2023-04-25T01:00:17;5.40;99.90
56542;DHT22;42438;53.174;6.730;2023-04-25T01:02:48;5.40;99.90
56542;DHT22;42438;53.174;6.730;2023-04-25T01:05:20;6.20;99.90
56542;DHT22;42438;53.174;6.730;2023-04-25T01:07:50;5.40;99.90
56542;DHT22;42438;53.174;6.730;2023-04-25T01:10:21;5.40;99.90
56542;DHT22;42438;53.174;6.730;2023-04-25T01:12:51;5.40;99.90
56542;DHT22;42438;53.174;6.730;2023-04-25T01:15:22;5.40;99.90
56542;DHT22;42438;53.174;6.730;2023-04-25T01:17:53;5.40;99.90
56542;DHT22;42438;53.174;6.730;2023-04-25T01:20:23;5.40;99.90
56542;DHT22;42438;53.174;6.730;2023-04-25T01:22:55;5.40;99.90
56542;DHT22;42438;53.174;6.730;2023-04-25T01:25:25;5.40;99.90
56542;DHT22;42438;53.174;6.730;2023-04-25T01:27:56;5.40;99.90
56542;DHT22;42438;53.174;6.730;2023-04-25T01:30:27;5.30;99.90
56542;DHT22;42438;53.174;6.730;2023-04-25T01:32:58;5.70;99.90
56542;DHT22;42438;53.174;6.730;2023-04-25T01:35:29;5.40;99.90
56542;DHT22;42438;53.174;6.730;2023-04-25T01:38:00;5.40;99.90
56542;DHT22;42438;53.174;6.730;2023-04-25T01:40:30;5.40;99.90
56542;DHT22;42438;53.174;6.730;2023-04-25T01:43:01;5.50;99.90
56542;DHT22;42438;53.174;6.730;2023-04-25T01:45:32;5.30;99.90
56542;DHT22;42438;53.174;6.730;2023-04-25T01:48:03;5.30;99.90
56542;DHT22;42438;53.174;6.730;2023-04-25T01:50:34;5.30;99.90
56542;DHT22;42438;53.174;6.730;2023-04-25T02:00:39;5.30;99.90
56542;DHT22;42438;53.174;6.730;2023-04-25T02:03:11;5.20;99.90
56542;DHT22;42438;53.174;6.730;2023-04-25T02:05:41;6.20;99.90
56542;DHT22;42438;53.174;6.730;2023-04-25T02:08:12;5.30;99.90
56542;DHT22;42438;53.174;6.730;2023-04-25T02:10:42;5.30;99.90
56542;DHT22;42438;53.174;6.730;2023-04-25T02:13:13;5.30;99.90
56542;DHT22;42438;53.174;6.730;2023-04-25T02:15:43;5.30;99.90
56542;DHT22;42438;53.174;6.730;2023-04-25T02:18:14;5.30;99.90
56542;DHT22;42438;53.174;6.730;2023-04-25T02:20:46;5.30;99.90
56542;DHT22;42438;53.174;6.730;2023-04-25T02:23:17;5.30;99.90
56542;DHT22;42438;53.174;6.730;2023-04-25T02:28:20;5.20;99.90
56542;DHT22;42438;53.174;6.730;2023-04-25T02:30:50;5.00;99.90
56542;DHT22;42438;53.174;6.730;2023-04-25T02:35:52;4.90;99.90
56542;DHT22;42438;53.174;6.730;2023-04-25T02:38:22;4.90;99.90
56542;DHT22;42438;53.174;6.730;2023-04-25T02:40:53;4.70;99.90
56542;DHT22;42438;53.174;6.730;2023-04-25T02:43:23;4.80;99.90
56542;DHT22;42438;53.174;6.730;2023-04-25T02:45:54;4.80;99.90
56542;DHT22;42438;53.174;6.730;2023-04-25T02:48:24;5.30;99.90
56542;DHT22;42438;53.174;6.730;2023-04-25T02:50:55;5.10;99.90
56542;DHT22;42438;53.174;6.730;2023-04-25T02:53:25;5.00;99.90
56542;DHT22;42438;53.174;6.730;2023-04-25T02:55:56;5.20;99.90
56542;DHT22;42438;53.174;6.730;2023-04-25T02:58:28;5.30;99.90
56542;DHT22;42438;53.174;6.730;2023-04-25T03:00:59;5.00;99.90
56542;DHT22;42438;53.174;6.730;2023-04-25T03:03:29;5.00;99.90
56542;DHT22;42438;53.174;6.730;2023-04-25T03:06:00;5.30;99.90
56542;DHT22;42438;53.174;6.730;2023-04-25T03:08:30;5.10;99.90
56542;DHT22;42438;53.174;6.730;2023-04-25T03:11:02;5.20;99.90
56542;DHT22;42438;53.174;6.730;2023-04-25T03:13:33;5.00;99.90
56542;DHT22;42438;53.174;6.730;2023-04-25T03:16:04;5.30;99.90
56542;DHT22;42438;53.174;6.730;2023-04-25T03:18:34;4.80;99.90
56542;DHT22;42438;53.174;6.730;2023-04-25T03:21:05;5.00;99.90
56542;DHT22;42438;53.174;6.730;2023-04-25T03:23:35;4.50;99.90
56542;DHT22;42438;53.174;6.730;2023-04-25T03:26:06;4.40;99.90
56542;DHT22;42438;53.174;6.730;2023-04-25T03:28:36;4.40;99.90
56542;DHT22;42438;53.174;6.730;2023-04-25T03:33:38;4.30;99.90
56542;DHT22;42438;53.174;6.730;2023-04-25T03:36:08;5.00;99.90
56542;DHT22;42438;53.174;6.730;2023-04-25T03:38:39;4.10;99.90
56542;DHT22;42438;53.174;6.730;2023-04-25T03:41:12;4.00;99.90
56542;DHT22;42438;53.174;6.730;2023-04-25T03:43:42;4.60;99.90
56542;DHT22;42438;53.174;6.730;2023-04-25T03:46:13;3.50;99.90
56542;DHT22;42438;53.174;6.730;2023-04-25T03:48:43;4.20;99.90
56542;DHT22;42438;53.174;6.730;2023-04-25T03:51:14;4.00;99.90
56542;DHT22;42438;53.174;6.730;2023-04-25T03:53:44;4.30;99.90
56542;DHT22;42438;53.174;6.730;2023-04-25T03:56:15;4.00;99.90
56542;DHT22;42438;53.174;6.730;2023-04-25T03:58:45;3.80;99.90
56542;DHT22;42438;53.174;6.730;2023-04-25T04:01:16;3.80;99.90
56542;DHT22;42438;53.174;6.730;2023-04-25T04:03:47;4.40;99.90
56542;DHT22;42438;53.174;6.730;2023-04-25T04:06:17;4.10;99.90
56542;DHT22;42438;53.174;6.730;2023-04-25T04:08:48;4.00;99.90
56542;DHT22;42438;53.174;6.730;2023-04-25T04:11:19;4.20;99.90
56542;DHT22;42438;53.174;6.730;2023-04-25T04:13:49;4.30;99.90
56542;DHT22;42438;53.174;6.730;2023-04-25T04:16:20;4.30;99.90
56542;DHT22;42438;53.174;6.730;2023-04-25T04:18:50;4.10;99.90
56542;DHT22;42438;53.174;6.730;2023-04-25T04:21:21;4.10;99.90
56542;DHT22;42438;53.174;6.730;2023-04-25T04:23:51;4.00;99.90
56542;DHT22;42438;53.174;6.730;2023-04-25T04:26:22;3.80;99.90
56542;DHT22;42438;53.174;6.730;2023-04-25T04:28:53;4.30;99.90
56542;DHT22;42438;53.174;6.730;2023-04-25T04:31:24;3.50;99.90
56542;DHT22;42438;53.174;6.730;2023-04-25T04:33:55;3.30;99.90
56542;DHT22;42438;53.174;6.730;2023-04-25T04:36:25;3.30;99.90
56542;DHT22;42438;53.174;6.730;2023-04-25T04:38:56;3.30;99.90
56542;DHT22;42438;53.174;6.730;2023-04-25T04:41:27;4.30;99.90
56542;DHT22;42438;53.174;6.730;2023-04-25T04:43:58;3.10;99.90
56542;DHT22;42438;53.174;6.730;2023-04-25T04:46:31;4.00;99.90
56542;DHT22;42438;53.174;6.730;2023-04-25T04:49:01;4.00;99.90
56542;DHT22;42438;53.174;6.730;2023-04-25T04:51:33;3.50;99.90
56542;DHT22;42438;53.174;6.730;2023-04-25T04:54:03;2.90;99.90
56542;DHT22;42438;53.174;6.730;2023-04-25T04:56:34;3.40;99.90
56542;DHT22;42438;53.174;6.730;2023-04-25T04:59:05;3.60;99.90
56542;DHT22;42438;53.174;6.730;2023-04-25T05:01:36;3.50;99.90
56542;DHT22;42438;53.174;6.730;2023-04-25T05:04:06;4.40;99.90
56542;DHT22;42438;53.174;6.730;2023-04-25T05:06:37;4.10;99.90
56542;DHT22;42438;53.174;6.730;2023-04-25T05:09:07;4.30;99.90
56542;DHT22;42438;53.174;6.730;2023-04-25T05:11:38;4.60;99.90
56542;DHT22;42438;53.174;6.730;2023-04-25T05:14:09;4.50;99.90
56542;DHT22;42438;53.174;6.730;2023-04-25T05:16:39;4.60;99.90
56542;DHT22;42438;53.174;6.730;2023-04-25T05:19:10;4.50;99.90
56542;DHT22;42438;53.174;6.730;2023-04-25T05:21:40;4.90;99.90
56542;DHT22;42438;53.174;6.730;2023-04-25T05:24:11;5.80;99.90
56542;DHT22;42438;53.174;6.730;2023-04-25T05:26:42;5.20;99.90
56542;DHT22;42438;53.174;6.730;2023-04-25T05:29:12;4.50;99.90
56542;DHT22;42438;53.174;6.730;2023-04-25T05:31:43;4.70;99.90
56542;DHT22;42438;53.174;6.730;2023-04-25T05:34:14;4.90;99.90
56542;DHT22;42438;53.174;6.730;2023-04-25T05:36:44;5.00;99.90
56542;DHT22;42438;53.174;6.730;2023-04-25T05:39:18;4.70;99.90
56542;DHT22;42438;53.174;6.730;2023-04-25T05:41:49;4.90;99.90
56542;DHT22;42438;53.174;6.730;2023-04-25T05:44:19;4.70;99.90
56542;DHT22;42438;53.174;6.730;2023-04-25T05:46:50;4.70;99.90
56542;DHT22;42438;53.174;6.730;2023-04-25T05:49:20;5.10;99.90
56542;DHT22;42438;53.174;6.730;2023-04-25T05:51:51;5.00;99.90
56542;DHT22;42438;53.174;6.730;2023-04-25T05:54:22;4.70;99.90
56542;DHT22;42438;53.174;6.730;2023-04-25T05:56:52;5.00;99.90
56542;DHT22;42438;53.174;6.730;2023-04-25T05:59:23;5.40;99.90
56542;DHT22;42438;53.174;6.730;2023-04-25T06:01:54;5.20;99.90
56542;DHT22;42438;53.174;6.730;2023-04-25T06:04:25;5.20;99.90
56542;DHT22;42438;53.174;6.730;2023-04-25T06:06:55;5.60;99.90
56542;DHT22;42438;53.174;6.730;2023-04-25T06:09:26;6.00;99.90
56542;DHT22;42438;53.174;6.730;2023-04-25T06:11:56;5.10;99.90
56542;DHT22;42438;53.174;6.730;2023-04-25T06:14:27;5.10;99.90
56542;DHT22;42438;53.174;6.730;2023-04-25T06:16:57;4.70;99.90
56542;DHT22;42438;53.174;6.730;2023-04-25T06:19:28;5.40;99.90
56542;DHT22;42438;53.174;6.730;2023-04-25T06:21:59;5.40;99.90
56542;DHT22;42438;53.174;6.730;2023-04-25T06:24:29;5.30;99.90
56542;DHT22;42438;53.174;6.730;2023-04-25T06:27:00;5.50;99.90
56542;DHT22;42438;53.174;6.730;2023-04-25T06:29:30;5.50;99.90
56542;DHT22;42438;53.174;6.730;2023-04-25T06:32:01;5.90;99.90
56542;DHT22;42438;53.174;6.730;2023-04-25T06:34:31;5.50;99.90
56542;DHT22;42438;53.174;6.730;2023-04-25T06:37:02;5.60;99.90
56542;DHT22;42438;53.174;6.730;2023-04-25T06:39:32;5.60;99.90
56542;DHT22;42438;53.174;6.730;2023-04-25T06:42:03;5.80;99.90
56542;DHT22;42438;53.174;6.730;2023-04-25T06:44:34;5.70;99.90
56542;DHT22;42438;53.174;6.730;2023-04-25T06:47:04;6.20;99.90
56542;DHT22;42438;53.174;6.730;2023-04-25T06:49:35;6.00;99.90
56542;DHT22;42438;53.174;6.730;2023-04-25T06:52:05;6.70;99.90
56542;DHT22;42438;53.174;6.730;2023-04-25T06:54:36;6.40;99.90
56542;DHT22;42438;53.174;6.730;2023-04-25T06:57:06;7.00;99.90
56542;DHT22;42438;53.174;6.730;2023-04-25T07:02:08;7.00;99.90
56542;DHT22;42438;53.174;6.730;2023-04-25T07:04:39;7.20;99.90
56542;DHT22;42438;53.174;6.730;2023-04-25T07:07:09;7.30;99.90
56542;DHT22;42438;53.174;6.730;2023-04-25T07:09:40;7.10;99.90
56542;DHT22;42438;53.174;6.730;2023-04-25T07:12:10;6.90;99.90
56542;DHT22;42438;53.174;6.730;2023-04-25T07:14:41;6.90;99.90
56542;DHT22;42438;53.174;6.730;2023-04-25T07:17:11;6.90;99.90
56542;DHT22;42438;53.174;6.730;2023-04-25T07:19:42;7.20;99.90
56542;DHT22;42438;53.174;6.730;2023-04-25T07:22:13;6.80;99.90
56542;DHT22;42438;53.174;6.730;2023-04-25T07:24:44;6.80;99.90
56542;DHT22;42438;53.174;6.730;2023-04-25T07:27:19;6.80;99.90
56542;DHT22;42438;53.174;6.730;2023-04-25T07:29:49;6.90;99.90
56542;DHT22;42438;53.174;6.730;2023-04-25T07:32:20;6.90;99.90
56542;DHT22;42438;53.174;6.730;2023-04-25T07:34:50;7.10;99.90
56542;DHT22;42438;53.174;6.730;2023-04-25T07:37:21;7.20;99.90
56542;DHT22;42438;53.174;6.730;2023-04-25T07:39:51;7.40;99.90
56542;DHT22;42438;53.174;6.730;2023-04-25T07:42:22;7.60;99.90
56542;DHT22;42438;53.174;6.730;2023-04-25T07:44:53;7.70;99.90
56542;DHT22;42438;53.174;6.730;2023-04-25T07:47:23;7.80;99.90
56542;DHT22;42438;53.174;6.730;2023-04-25T07:49:54;8.00;99.90
56542;DHT22;42438;53.174;6.730;2023-04-25T07:52:25;8.00;99.90
56542;DHT22;42438;53.174;6.730;2023-04-25T07:54:55;7.90;99.90
56542;DHT22;42438;53.174;6.730;2023-04-25T07:57:26;7.60;99.90
56542;DHT22;42438;53.174;6.730;2023-04-25T07:59:57;7.50;99.90
56542;DHT22;42438;53.174;6.730;2023-04-25T08:02:27;7.30;99.90
56542;DHT22;42438;53.174;6.730;2023-04-25T08:04:58;7.20;99.90
56542;DHT22;42438;53.174;6.730;2023-04-25T08:07:29;7.10;99.90
56542;DHT22;42438;53.174;6.730;2023-04-25T08:09:59;7.10;99.90
56542;DHT22;42438;53.174;6.730;2023-04-25T08:12:30;7.10;99.90
56542;DHT22;42438;53.174;6.730;2023-04-25T08:15:00;7.30;99.90
56542;DHT22;42438;53.174;6.730;2023-04-25T08:17:31;7.50;99.90
56542;DHT22;42438;53.174;6.730;2023-04-25T08:20:01;7.60;99.90
56542;DHT22;42438;53.174;6.730;2023-04-25T08:22:35;7.90;99.90
56542;DHT22;42438;53.174;6.730;2023-04-25T08:25:06;8.10;99.90
56542;DHT22;42438;53.174;6.730;2023-04-25T08:27:36;7.30;99.90
56542;DHT22;42438;53.174;6.730;2023-04-25T08:30:07;6.50;99.90
56542;DHT22;42438;53.174;6.730;2023-04-25T08:32:39;6.10;99.90
56542;DHT22;42438;53.174;6.730;2023-04-25T08:35:09;6.00;99.90
56542;DHT22;42438;53.174;6.730;2023-04-25T08:37:40;5.70;99.90
56542;DHT22;42438;53.174;6.730;2023-04-25T08:40:11;5.90;99.90
56542;DHT22;42438;53.174;6.730;2023-04-25T08:42:42;6.10;99.90
56542;DHT22;42438;53.174;6.730;2023-04-25T08:45:13;6.20;99.90
56542;DHT22;42438;53.174;6.730;2023-04-25T08:47:43;6.40;99.90
56542;DHT22;42438;53.174;6.730;2023-04-25T08:50:14;6.60;99.90
56542;DHT22;42438;53.174;6.730;2023-04-25T08:52:44;6.80;99.90
56542;DHT22;42438;53.174;6.730;2023-04-25T08:55:18;7.00;99.90
56542;DHT22;42438;53.174;6.730;2023-04-25T08:57:49;7.10;99.90
56542;DHT22;42438;53.174;6.730;2023-04-25T09:00:19;7.30;99.90
56542;DHT22;42438;53.174;6.730;2023-04-25T09:02:50;7.40;99.90
56542;DHT22;42438;53.174;6.730;2023-04-25T09:05:21;7.40;99.90
56542;DHT22;42438;53.174;6.730;2023-04-25T09:07:53;7.60;99.90
56542;DHT22;42438;53.174;6.730;2023-04-25T09:10:23;7.60;99.90
56542;DHT22;42438;53.174;6.730;2023-04-25T09:13:07;7.70;99.90
56542;DHT22;42438;53.174;6.730;2023-04-25T09:15:48;7.90;99.90
56542;DHT22;42438;53.174;6.730;2023-04-25T09:21:06;8.30;99.90
56542;DHT22;42438;53.174;6.730;2023-04-25T09:26:13;8.70;99.90
56542;DHT22;42438;53.174;6.730;2023-04-25T09:28:44;9.20;99.90
56542;DHT22;42438;53.174;6.730;2023-04-25T09:31:22;9.10;99.90
56542;DHT22;42438;53.174;6.730;2023-04-25T09:36:26;9.10;99.90
56542;DHT22;42438;53.174;6.730;2023-04-25T09:38:57;8.90;99.90
56542;DHT22;42438;53.174;6.730;2023-04-25T09:41:29;9.00;99.90
56542;DHT22;42438;53.174;6.730;2023-04-25T09:44:00;9.10;99.90
56542;DHT22;42438;53.174;6.730;2023-04-25T09:54:03;8.40;99.90
56542;DHT22;42438;53.174;6.730;2023-04-25T09:56:35;7.40;99.90
56542;DHT22;42438;53.174;6.730;2023-04-25T09:59:06;7.30;99.90
56542;DHT22;42438;53.174;6.730;2023-04-25T10:01:37;7.40;99.90
56542;DHT22;42438;53.174;6.730;2023-04-25T10:04:10;7.70;99.90
56542;DHT22;42438;53.174;6.730;2023-04-25T10:06:41;8.00;99.90
56542;DHT22;42438;53.174;6.730;2023-04-25T10:09:13;8.20;99.90
56542;DHT22;42438;53.174;6.730;2023-04-25T10:16:46;8.40;99.90
56542;DHT22;42438;53.174;6.730;2023-04-25T10:19:17;9.10;99.90
56542;DHT22;42438;53.174;6.730;2023-04-25T10:21:48;8.80;99.90
56542;DHT22;42438;53.174;6.730;2023-04-25T10:24:20;9.30;99.90
56542;DHT22;42438;53.174;6.730;2023-04-25T10:26:51;8.90;99.90
56542;DHT22;42438;53.174;6.730;2023-04-25T10:29:22;8.60;99.90
56542;DHT22;42438;53.174;6.730;2023-04-25T10:36:56;8.30;99.90
56542;DHT22;42438;53.174;6.730;2023-04-25T10:44:29;7.50;99.90
56542;DHT22;42438;53.174;6.730;2023-04-25T10:47:00;7.60;99.90
56542;DHT22;42438;53.174;6.730;2023-04-25T10:54:33;7.60;99.90
56542;DHT22;42438;53.174;6.730;2023-04-25T10:57:04;8.70;99.90
56542;DHT22;42438;53.174;6.730;2023-04-25T10:59:34;8.50;99.90
56542;DHT22;42438;53.174;6.730;2023-04-25T11:02:11;9.30;99.90
56542;DHT22;42438;53.174;6.730;2023-04-25T11:04:42;9.30;99.90
56542;DHT22;42438;53.174;6.730;2023-04-25T11:07:26;8.70;99.90
56542;DHT22;42438;53.174;6.730;2023-04-25T11:12:30;8.00;99.90
56542;DHT22;42438;53.174;6.730;2023-04-25T11:15:03;7.00;99.90
56542;DHT22;42438;53.174;6.730;2023-04-25T11:17:34;6.90;99.90
56542;DHT22;42438;53.174;6.730;2023-04-25T11:20:04;7.10;99.90
56542;DHT22;42438;53.174;6.730;2023-04-25T11:22:41;7.60;99.90
56542;DHT22;42438;53.174;6.730;2023-04-25T11:25:14;8.00;99.90
56542;DHT22;42438;53.174;6.730;2023-04-25T11:27:49;8.50;99.90
56542;DHT22;42438;53.174;6.730;2023-04-25T11:30:20;8.80;99.90
56542;DHT22;42438;53.174;6.730;2023-04-25T11:32:51;9.30;99.90
56542;DHT22;42438;53.174;6.730;2023-04-25T11:35:25;9.30;99.90
56542;DHT22;42438;53.174;6.730;2023-04-25T11:37:55;9.40;99.90
56542;DHT22;42438;53.174;6.730;2023-04-25T11:40:26;8.80;99.90
56542;DHT22;42438;53.174;6.730;2023-04-25T11:42:59;8.50;99.90
56542;DHT22;42438;53.174;6.730;2023-04-25T11:45:30;8.80;99.90
56542;DHT22;42438;53.174;6.730;2023-04-25T11:48:03;9.80;99.90
56542;DHT22;42438;53.174;6.730;2023-04-25T11:50:34;9.40;99.90
56542;DHT22;42438;53.174;6.730;2023-04-25T11:53:05;9.20;99.90
56542;DHT22;42438;53.174;6.730;2023-04-25T11:55:36;9.10;99.90
56542;DHT22;42438;53.174;6.730;2023-04-25T11:58:07;9.20;99.90
56542;DHT22;42438;53.174;6.730;2023-04-25T12:00:38;9.60;99.90
56542;DHT22;42438;53.174;6.730;2023-04-25T12:03:11;10.40;99.90
56542;DHT22;42438;53.174;6.730;2023-04-25T12:05:42;10.20;99.90
56542;DHT22;42438;53.174;6.730;2023-04-25T12:08:13;10.40;99.90
56542;DHT22;42438;53.174;6.730;2023-04-25T12:10:45;10.10;99.90
56542;DHT22;42438;53.174;6.730;2023-04-25T12:13:19;10.30;99.90
56542;DHT22;42438;53.174;6.730;2023-04-25T12:15:50;10.10;99.90
56542;DHT22;42438;53.174;6.730;2023-04-25T12:18:23;9.80;99.90
56542;DHT22;42438;53.174;6.730;2023-04-25T12:20:53;9.40;99.90
56542;DHT22;42438;53.174;6.730;2023-04-25T12:23:25;9.60;99.90
56542;DHT22;42438;53.174;6.730;2023-04-25T12:25:55;9.90;99.90
56542;DHT22;42438;53.174;6.730;2023-04-25T12:28:26;10.20;99.90
56542;DHT22;42438;53.174;6.730;2023-04-25T12:33:34;9.40;99.90
56542;DHT22;42438;53.174;6.730;2023-04-25T12:36:05;9.30;99.90
56542;DHT22;42438;53.174;6.730;2023-04-25T12:38:40;8.90;99.90
56542;DHT22;42438;53.174;6.730;2023-04-25T12:41:10;9.30;99.90
56542;DHT22;42438;53.174;6.730;2023-04-25T12:46:12;9.50;99.90
56542;DHT22;42438;53.174;6.730;2023-04-25T12:48:43;9.60;99.90
56542;DHT22;42438;53.174;6.730;2023-04-25T12:51:13;9.20;99.90
56542;DHT22;42438;53.174;6.730;2023-04-25T12:53:44;8.90;99.90
56542;DHT22;42438;53.174;6.730;2023-04-25T12:56:14;8.90;99.90
56542;DHT22;42438;53.174;6.730;2023-04-25T12:58:45;9.20;99.90
56542;DHT22;42438;53.174;6.730;2023-04-25T13:01:16;9.10;99.90
56542;DHT22;42438;53.174;6.730;2023-04-25T13:03:47;8.90;99.90
56542;DHT22;42438;53.174;6.730;2023-04-25T13:06:18;8.80;99.90
56542;DHT22;42438;53.174;6.730;2023-04-25T13:08:49;8.70;99.90
56542;DHT22;42438;53.174;6.730;2023-04-25T13:11:20;8.80;99.90
56542;DHT22;42438;53.174;6.730;2023-04-25T13:13:50;9.00;99.90
56542;DHT22;42438;53.174;6.730;2023-04-25T13:16:21;8.70;99.90
56542;DHT22;42438;53.174;6.730;2023-04-25T13:18:52;8.80;99.90
56542;DHT22;42438;53.174;6.730;2023-04-25T13:21:23;9.30;99.90
56542;DHT22;42438;53.174;6.730;2023-04-25T13:23:53;9.30;99.90
56542;DHT22;42438;53.174;6.730;2023-04-25T13:26:24;9.20;99.90
56542;DHT22;42438;53.174;6.730;2023-04-25T13:28:55;9.80;99.90
56542;DHT22;42438;53.174;6.730;2023-04-25T13:31:25;9.40;99.90
56542;DHT22;42438;53.174;6.730;2023-04-25T13:33:56;9.80;99.90
56542;DHT22;42438;53.174;6.730;2023-04-25T13:36:27;10.10;99.90
56542;DHT22;42438;53.174;6.730;2023-04-25T13:38:58;10.50;99.90
56542;DHT22;42438;53.174;6.730;2023-04-25T13:41:28;10.50;99.90
56542;DHT22;42438;53.174;6.730;2023-04-25T13:43:59;10.30;99.90
56542;DHT22;42438;53.174;6.730;2023-04-25T13:46:31;9.80;99.90
56542;DHT22;42438;53.174;6.730;2023-04-25T13:49:01;9.40;99.90
56542;DHT22;42438;53.174;6.730;2023-04-25T13:51:32;9.60;99.90
56542;DHT22;42438;53.174;6.730;2023-04-25T13:54:02;9.70;99.90
56542;DHT22;42438;53.174;6.730;2023-04-25T13:56:33;10.00;99.90
56542;DHT22;42438;53.174;6.730;2023-04-25T13:59:03;10.10;99.90
56542;DHT22;42438;53.174;6.730;2023-04-25T14:01:34;10.20;99.90
56542;DHT22;42438;53.174;6.730;2023-04-25T14:04:06;10.00;99.90
56542;DHT22;42438;53.174;6.730;2023-04-25T14:06:36;9.80;99.90
56542;DHT22;42438;53.174;6.730;2023-04-25T14:09:07;9.60;99.70
56542;DHT22;42438;53.174;6.730;2023-04-25T14:11:40;9.60;99.90
56542;DHT22;42438;53.174;6.730;2023-04-25T14:14:11;9.80;99.90
56542;DHT22;42438;53.174;6.730;2023-04-25T14:16:42;9.80;99.60
56542;DHT22;42438;53.174;6.730;2023-04-25T14:19:13;9.40;99.60
56542;DHT22;42438;53.174;6.730;2023-04-25T14:21:44;9.70;99.90
56542;DHT22;42438;53.174;6.730;2023-04-25T14:24:15;9.80;99.90
56542;DHT22;42438;53.174;6.730;2023-04-25T14:26:46;9.70;99.30
56542;DHT22;42438;53.174;6.730;2023-04-25T14:49:25;9.20;99.90
56542;DHT22;42438;53.174;6.730;2023-04-25T14:59:28;9.80;99.70
56542;DHT22;42438;53.174;6.730;2023-04-25T15:01:59;8.60;99.90
56542;DHT22;42438;53.174;6.730;2023-04-25T15:04:30;8.20;99.90
56542;DHT22;42438;53.174;6.730;2023-04-25T15:07:00;8.00;99.90
56542;DHT22;42438;53.174;6.730;2023-04-25T15:09:31;8.10;99.90
56542;DHT22;42438;53.174;6.730;2023-04-25T15:12:01;8.40;99.90
56542;DHT22;42438;53.174;6.730;2023-04-25T15:14:32;8.90;99.90
56542;DHT22;42438;53.174;6.730;2023-04-25T15:17:04;9.40;99.90
56542;DHT22;42438;53.174;6.730;2023-04-25T15:19:34;9.70;99.90
56542;DHT22;42438;53.174;6.730;2023-04-25T15:22:05;9.30;99.90
56542;DHT22;42438;53.174;6.730;2023-04-25T15:24:37;9.10;99.90
56542;DHT22;42438;53.174;6.730;2023-04-25T15:27:07;8.80;99.90
56542;DHT22;42438;53.174;6.730;2023-04-25T15:29:38;8.80;99.90
56542;DHT22;42438;53.174;6.730;2023-04-25T15:32:09;8.50;99.90
56542;DHT22;42438;53.174;6.730;2023-04-25T15:34:39;8.50;99.90
56542;DHT22;42438;53.174;6.730;2023-04-25T15:37:10;8.30;99.90
56542;DHT22;42438;53.174;6.730;2023-04-25T15:39:41;8.60;99.90
56542;DHT22;42438;53.174;6.730;2023-04-25T15:42:11;8.70;99.90
56542;DHT22;42438;53.174;6.730;2023-04-25T15:44:42;8.90;99.90
56542;DHT22;42438;53.174;6.730;2023-04-25T15:47:12;8.90;99.70
56542;DHT22;42438;53.174;6.730;2023-04-25T15:49:43;8.80;99.80
56542;DHT22;42438;53.174;6.730;2023-04-25T15:52:13;9.00;99.70
56542;DHT22;42438;53.174;6.730;2023-04-25T15:54:44;8.90;99.90
56542;DHT22;42438;53.174;6.730;2023-04-25T15:57:15;8.90;99.90
56542;DHT22;42438;53.174;6.730;2023-04-25T15:59:47;8.90;99.90
56542;DHT22;42438;53.174;6.730;2023-04-25T16:02:18;9.00;99.90
56542;DHT22;42438;53.174;6.730;2023-04-25T16:04:48;9.00;99.90
56542;DHT22;42438;53.174;6.730;2023-04-25T16:07:19;8.90;99.90
56542;DHT22;42438;53.174;6.730;2023-04-25T16:09:50;8.70;99.90
56542;DHT22;42438;53.174;6.730;2023-04-25T16:12:20;8.50;99.90
56542;DHT22;42438;53.174;6.730;2023-04-25T16:14:51;8.20;99.90
56542;DHT22;42438;53.174;6.730;2023-04-25T16:17:21;8.00;99.90
56542;DHT22;42438;53.174;6.730;2023-04-25T16:19:52;8.20;99.90
56542;DHT22;42438;53.174;6.730;2023-04-25T16:22:22;8.30;99.90
56542;DHT22;42438;53.174;6.730;2023-04-25T16:24:53;8.30;99.90
56542;DHT22;42438;53.174;6.730;2023-04-25T16:27:23;8.30;99.90
56542;DHT22;42438;53.174;6.730;2023-04-25T16:29:54;8.30;99.90
56542;DHT22;42438;53.174;6.730;2023-04-25T16:32:25;8.20;99.90
56542;DHT22;42438;53.174;6.730;2023-04-25T16:34:56;8.20;99.90
56542;DHT22;42438;53.174;6.730;2023-04-25T16:37:26;9.00;99.90
56542;DHT22;42438;53.174;6.730;2023-04-25T16:39:57;8.20;99.90
56542;DHT22;42438;53.174;6.730;2023-04-25T16:42:27;8.40;99.90
56542;DHT22;42438;53.174;6.730;2023-04-25T16:44:58;8.50;99.90
56542;DHT22;42438;53.174;6.730;2023-04-25T16:47:28;8.50;99.90
56542;DHT22;42438;53.174;6.730;2023-04-25T16:49:59;8.50;99.90
56542;DHT22;42438;53.174;6.730;2023-04-25T16:52:30;8.60;99.90
56542;DHT22;42438;53.174;6.730;2023-04-25T16:55:01;8.50;99.90
56542;DHT22;42438;53.174;6.730;2023-04-25T16:57:31;8.40;99.90
56542;DHT22;42438;53.174;6.730;2023-04-25T17:00:03;8.20;99.90
56542;DHT22;42438;53.174;6.730;2023-04-25T17:02:34;8.00;99.90
56542;DHT22;42438;53.174;6.730;2023-04-25T17:05:05;7.60;99.90
56542;DHT22;42438;53.174;6.730;2023-04-25T17:07:35;7.80;99.90
56542;DHT22;42438;53.174;6.730;2023-04-25T17:10:06;8.10;99.90
56542;DHT22;42438;53.174;6.730;2023-04-25T17:12:37;7.80;99.90
56542;DHT22;42438;53.174;6.730;2023-04-25T17:15:07;7.90;99.90
56542;DHT22;42438;53.174;6.730;2023-04-25T17:17:38;7.80;99.90
56542;DHT22;42438;53.174;6.730;2023-04-25T17:20:09;7.90;99.90
56542;DHT22;42438;53.174;6.730;2023-04-25T17:22:39;7.70;99.90
56542;DHT22;42438;53.174;6.730;2023-04-25T17:25:10;8.00;99.90
56542;DHT22;42438;53.174;6.730;2023-04-25T17:27:40;7.60;99.90
56542;DHT22;42438;53.174;6.730;2023-04-25T17:32:42;7.00;99.90
56542;DHT22;42438;53.174;6.730;2023-04-25T17:35:12;6.60;99.90
56542;DHT22;42438;53.174;6.730;2023-04-25T17:37:44;6.60;99.90
56542;DHT22;42438;53.174;6.730;2023-04-25T17:40:15;6.40;99.90